Tar Heel, NC (28392)

7:45 PM EDT op 29 maart 2015 (GMT -0400)
Cape Owen Manor | | Change Station
CLOSE
Current Station
Persoonlijk weerstation
Location: Elizabethtown, NC
Geometrische hoogte: 151 ft
Nabije weerstations
Actief advies: Frost Advisory Actieve aankondiging: Record Report

Hoogte 151 ft 34.69 °N, 78.69 °W | Updated 1 minute ago

Helder
Helder
43.3 °F
Voelt als 43 °F
N
0.0
Wind Variabel Wind van zuid

Vandaag
Hoog -- | Laag -- °F
--% Kans op neerslag
Gisteren
Hoog -- | Laag -- °F
Precip. -- inches
7:06 AM 7:33 PM
Wassende maan, 75% visible
Druk 30.31 inches
Zicht 10.0 mijlen
Wolken Helder
Gevoelstemperatuur 43 °F
Dauwpunt 21 °F
Vochtigheid 41%
Neerslag 0.00 inches
Dikte sneeuw Niet beschikbaar.
UV 0 van de 12
Pollen 8.80 van de 12
Luchtkwaliteit Niet beschikbaar.
Flu Activity Niet beschikbaar.
METAR KLBT 292254Z AUTO 18005KT 10SM CLR 10/M08 A3031 RMK AO2 SLP264 T01001083

More Conditions Fewer Conditions

Druk 30.31 inches
Zicht 10.0 mijlen
Wolken Helder
Gevoelstemperatuur 43 °F
Dauwpunt 21 °F
Vochtigheid 41%
Neerslag 0.00 inches
Dikte sneeuw Niet beschikbaar.
UV 0 van de 12
Pollen 8.80 van de 12
Luchtkwaliteit Niet beschikbaar.
Flu Activity Niet beschikbaar.
METAR KLBT 292254Z AUTO 18005KT 10SM CLR 10/M08 A3031 RMK AO2 SLP264 T01001083

More Conditions Fewer Conditions

10-Day Weather Forecast

Almanac

Astronomie

Mar. 29, 2015 Opkomst Ondergang
Werkelijke tijd
Burgerlijke schemering
Nautische schemering
Astronomische schemering
Maan
Golflengte van het zichtbare licht
Daglengte
Tomorrow will be .
, % of the Moon is Illuminated

Extremen vandaag

State Highs State Lows

Community

WunderPhotos

Upload Photos

1,809,380 foto’s ge-upload!

WunderBlogs® & News

Nearby

Luchtkwaliteit

  Luchtkwaliteit LK-index Verontreinigende stof
Not available.

Dikte sneeuw

Station Depth Geometrische hoogte

Aardbevingen

Stad Distance Mag. Time & Date
Minimum magnitude displayed is 2.5.

Watertemperatuur langs de kust

Plaats Temperatuur

Stations

Nabije weerstations

Locatie station Temp. Gevoelstemperatuur Dauwpunt Vochtigheid Wind Precip. Hoogte Geactualiseerd Type
                   
Frost Advisory
Statement as of 6:47 PM EDT op 29 maart 2015

... Frost advisory remains in effect from 10 PM this evening to
6 am EDT Monday...

* temperatures... in the mid 30s.

* Impacts... sensitive crops and vegetation will be susceptible to
frost late this evening and into the pre-dawn hours. Take the
necessary precautions to prevent damage to outdoor plants and
crops.

Precautionary/preparedness actions...

A frost advisory means that frost is expected. Sensitive outdoor
plants and vegetation may be killed if left unattended and
uncovered.



27